Terminal Aerodrome Forecast
Issued by NWS

Current Version | Previous Version | Text Only | Print | Product List | Glossary On
Versions: 1 2 3 4 5 6 7 8 9 10 11 12 13 14 15 16 17 18 19 20 21 22 23 24 25 26 27 28
000
FTUS46 KSGX 050520
TAFSAN
TAF
KSAN 050520Z 0506/0612 29007KT P6SM BKN013
     FM052000 29010KT P6SM BKN018
      TEMPO 0521/0601 SCT018
     FM060200 29005KT P6SM BKN016
     FM060900 28004KT P6SM OVC012=

USA.gov is the U.S. government's official web portal to all federal, state and local government web resources and services.